sensor_id;sensor_type;location;lat;lon;timestamp;temperature;humidity
29663;DHT22;16578;53.266;7.920;2022-08-01T00:00:39;22.80;76.70
29663;DHT22;16578;53.266;7.920;2022-08-01T00:03:05;22.80;76.70
29663;DHT22;16578;53.266;7.920;2022-08-01T00:05:31;22.80;76.70
29663;DHT22;16578;53.266;7.920;2022-08-01T00:07:56;22.80;76.70
29663;DHT22;16578;53.266;7.920;2022-08-01T00:10:22;22.80;76.70
29663;DHT22;16578;53.266;7.920;2022-08-01T00:12:48;22.80;76.70
29663;DHT22;16578;53.266;7.920;2022-08-01T00:15:15;22.80;76.80
29663;DHT22;16578;53.266;7.920;2022-08-01T00:17:42;22.80;76.70
29663;DHT22;16578;53.266;7.920;2022-08-01T00:20:11;22.80;76.70
29663;DHT22;16578;53.266;7.920;2022-08-01T00:22:37;22.80;76.70
29663;DHT22;16578;53.266;7.920;2022-08-01T00:25:03;22.80;76.70
29663;DHT22;16578;53.266;7.920;2022-08-01T00:27:29;22.80;76.70
29663;DHT22;16578;53.266;7.920;2022-08-01T00:29:55;22.80;76.70
29663;DHT22;16578;53.266;7.920;2022-08-01T00:32:20;22.80;76.70
29663;DHT22;16578;53.266;7.920;2022-08-01T00:34:46;22.80;76.70
29663;DHT22;16578;53.266;7.920;2022-08-01T00:37:11;22.80;76.70
29663;DHT22;16578;53.266;7.920;2022-08-01T00:39:37;22.70;76.70
29663;DHT22;16578;53.266;7.920;2022-08-01T00:42:06;22.70;76.60
29663;DHT22;16578;53.266;7.920;2022-08-01T00:44:32;22.70;76.70
29663;DHT22;16578;53.266;7.920;2022-08-01T00:46:58;22.70;76.70
29663;DHT22;16578;53.266;7.920;2022-08-01T00:49:23;22.70;76.70
29663;DHT22;16578;53.266;7.920;2022-08-01T00:51:49;22.70;76.60
29663;DHT22;16578;53.266;7.920;2022-08-01T00:54:15;22.70;76.60
29663;DHT22;16578;53.266;7.920;2022-08-01T00:56:41;22.70;76.60
29663;DHT22;16578;53.266;7.920;2022-08-01T00:59:07;22.60;76.50
29663;DHT22;16578;53.266;7.920;2022-08-01T01:01:33;22.60;76.50
29663;DHT22;16578;53.266;7.920;2022-08-01T01:04:00;22.60;76.50
29663;DHT22;16578;53.266;7.920;2022-08-01T01:09:55;22.60;76.50
29663;DHT22;16578;53.266;7.920;2022-08-01T01:12:42;22.50;76.50
29663;DHT22;16578;53.266;7.920;2022-08-01T01:15:14;22.50;76.60
29663;DHT22;16578;53.266;7.920;2022-08-01T01:18:07;22.50;76.60
29663;DHT22;16578;53.266;7.920;2022-08-01T01:20:37;22.50;76.70
29663;DHT22;16578;53.266;7.920;2022-08-01T01:31:19;22.40;76.80
29663;DHT22;16578;53.266;7.920;2022-08-01T01:33:47;22.40;76.70
29663;DHT22;16578;53.266;7.920;2022-08-01T01:36:14;22.40;76.80
29663;DHT22;16578;53.266;7.920;2022-08-01T01:38:43;22.30;76.70
29663;DHT22;16578;53.266;7.920;2022-08-01T01:41:14;22.30;76.70
29663;DHT22;16578;53.266;7.920;2022-08-01T01:43:41;22.30;76.70
29663;DHT22;16578;53.266;7.920;2022-08-01T01:46:09;22.30;76.60
29663;DHT22;16578;53.266;7.920;2022-08-01T01:48:36;22.30;76.50
29663;DHT22;16578;53.266;7.920;2022-08-01T01:51:03;22.30;76.50
29663;DHT22;16578;53.266;7.920;2022-08-01T01:53:30;22.20;76.40
29663;DHT22;16578;53.266;7.920;2022-08-01T01:55:58;22.20;76.30
29663;DHT22;16578;53.266;7.920;2022-08-01T01:58:26;22.20;76.40
29663;DHT22;16578;53.266;7.920;2022-08-01T02:00:53;22.10;76.50
29663;DHT22;16578;53.266;7.920;2022-08-01T02:03:20;22.10;76.50
29663;DHT22;16578;53.266;7.920;2022-08-01T02:05:48;22.10;76.60
29663;DHT22;16578;53.266;7.920;2022-08-01T02:08:17;22.10;76.70
29663;DHT22;16578;53.266;7.920;2022-08-01T02:10:44;22.10;76.70
29663;DHT22;16578;53.266;7.920;2022-08-01T02:13:34;22.10;76.70
29663;DHT22;16578;53.266;7.920;2022-08-01T02:16:03;22.10;76.80
29663;DHT22;16578;53.266;7.920;2022-08-01T02:18:29;22.10;76.80
29663;DHT22;16578;53.266;7.920;2022-08-01T02:20:56;22.00;76.80
29663;DHT22;16578;53.266;7.920;2022-08-01T02:23:24;22.00;76.80
29663;DHT22;16578;53.266;7.920;2022-08-01T02:25:55;22.00;76.80
29663;DHT22;16578;53.266;7.920;2022-08-01T02:28:28;22.00;76.80
29663;DHT22;16578;53.266;7.920;2022-08-01T02:30:59;22.00;76.80
29663;DHT22;16578;53.266;7.920;2022-08-01T02:33:40;22.00;76.80
29663;DHT22;16578;53.266;7.920;2022-08-01T02:36:07;22.00;76.70
29663;DHT22;16578;53.266;7.920;2022-08-01T02:38:35;22.00;76.50
29663;DHT22;16578;53.266;7.920;2022-08-01T02:41:07;22.00;76.60
29663;DHT22;16578;53.266;7.920;2022-08-01T02:43:38;22.00;76.60
29663;DHT22;16578;53.266;7.920;2022-08-01T02:46:08;21.90;76.60
29663;DHT22;16578;53.266;7.920;2022-08-01T02:48:36;21.90;76.80
29663;DHT22;16578;53.266;7.920;2022-08-01T02:51:04;21.90;76.80
29663;DHT22;16578;53.266;7.920;2022-08-01T02:53:33;21.90;76.80
29663;DHT22;16578;53.266;7.920;2022-08-01T02:56:03;21.90;76.80
29663;DHT22;16578;53.266;7.920;2022-08-01T02:58:30;21.80;76.70
29663;DHT22;16578;53.266;7.920;2022-08-01T03:00:57;21.80;76.70
29663;DHT22;16578;53.266;7.920;2022-08-01T03:03:24;21.80;76.70
29663;DHT22;16578;53.266;7.920;2022-08-01T03:05:50;21.80;76.80
29663;DHT22;16578;53.266;7.920;2022-08-01T03:08:16;21.80;76.70
29663;DHT22;16578;53.266;7.920;2022-08-01T03:10:44;21.70;76.70
29663;DHT22;16578;53.266;7.920;2022-08-01T03:13:11;21.70;76.50
29663;DHT22;16578;53.266;7.920;2022-08-01T03:15:41;21.70;76.50
29663;DHT22;16578;53.266;7.920;2022-08-01T03:18:09;21.70;76.60
29663;DHT22;16578;53.266;7.920;2022-08-01T03:20:37;21.70;76.60
29663;DHT22;16578;53.266;7.920;2022-08-01T03:23:07;21.60;76.50
29663;DHT22;16578;53.266;7.920;2022-08-01T03:25:36;21.60;76.50
29663;DHT22;16578;53.266;7.920;2022-08-01T03:28:04;21.60;76.60
29663;DHT22;16578;53.266;7.920;2022-08-01T03:30:32;21.60;76.60
29663;DHT22;16578;53.266;7.920;2022-08-01T03:32:58;21.50;76.70
29663;DHT22;16578;53.266;7.920;2022-08-01T03:35:30;21.50;76.70
29663;DHT22;16578;53.266;7.920;2022-08-01T03:37:56;21.50;76.70
29663;DHT22;16578;53.266;7.920;2022-08-01T03:40:38;21.50;76.70
29663;DHT22;16578;53.266;7.920;2022-08-01T03:43:15;21.50;76.80
29663;DHT22;16578;53.266;7.920;2022-08-01T03:45:46;21.50;76.80
29663;DHT22;16578;53.266;7.920;2022-08-01T03:48:16;21.50;76.80
29663;DHT22;16578;53.266;7.920;2022-08-01T03:50:49;21.40;76.80
29663;DHT22;16578;53.266;7.920;2022-08-01T03:53:16;21.40;76.70
29663;DHT22;16578;53.266;7.920;2022-08-01T03:55:44;21.40;76.60
29663;DHT22;16578;53.266;7.920;2022-08-01T03:58:10;21.30;76.50
29663;DHT22;16578;53.266;7.920;2022-08-01T04:00:37;21.30;77.40
29663;DHT22;16578;53.266;7.920;2022-08-01T04:03:05;21.30;76.60
29663;DHT22;16578;53.266;7.920;2022-08-01T04:05:32;21.30;76.60
29663;DHT22;16578;53.266;7.920;2022-08-01T04:07:57;21.20;76.60
29663;DHT22;16578;53.266;7.920;2022-08-01T04:10:25;21.20;76.70
29663;DHT22;16578;53.266;7.920;2022-08-01T04:12:51;21.20;76.70
29663;DHT22;16578;53.266;7.920;2022-08-01T04:15:17;21.20;76.80
29663;DHT22;16578;53.266;7.920;2022-08-01T04:17:42;21.20;76.80
29663;DHT22;16578;53.266;7.920;2022-08-01T04:20:08;21.20;76.90
29663;DHT22;16578;53.266;7.920;2022-08-01T04:22:34;21.20;76.90
29663;DHT22;16578;53.266;7.920;2022-08-01T04:25:02;21.20;76.90
29663;DHT22;16578;53.266;7.920;2022-08-01T04:27:33;21.10;76.80
29663;DHT22;16578;53.266;7.920;2022-08-01T04:30:01;21.20;76.80
29663;DHT22;16578;53.266;7.920;2022-08-01T04:32:29;21.10;76.70
29663;DHT22;16578;53.266;7.920;2022-08-01T04:34:58;21.10;76.70
29663;DHT22;16578;53.266;7.920;2022-08-01T04:37:25;21.10;76.50
29663;DHT22;16578;53.266;7.920;2022-08-01T04:39:52;21.10;76.40
29663;DHT22;16578;53.266;7.920;2022-08-01T04:42:20;21.00;76.20
29663;DHT22;16578;53.266;7.920;2022-08-01T04:44:46;21.00;76.20
29663;DHT22;16578;53.266;7.920;2022-08-01T04:47:12;21.00;76.20
29663;DHT22;16578;53.266;7.920;2022-08-01T04:49:39;21.00;76.20
29663;DHT22;16578;53.266;7.920;2022-08-01T04:52:05;21.00;76.10
29663;DHT22;16578;53.266;7.920;2022-08-01T04:54:33;20.90;76.20
29663;DHT22;16578;53.266;7.920;2022-08-01T04:57:02;20.90;76.20
29663;DHT22;16578;53.266;7.920;2022-08-01T04:59:28;20.90;76.30
29663;DHT22;16578;53.266;7.920;2022-08-01T05:04:33;20.80;76.20
29663;DHT22;16578;53.266;7.920;2022-08-01T05:06:59;20.80;76.10
29663;DHT22;16578;53.266;7.920;2022-08-01T05:09:25;20.80;76.00
29663;DHT22;16578;53.266;7.920;2022-08-01T05:11:51;20.80;75.80
29663;DHT22;16578;53.266;7.920;2022-08-01T05:14:16;20.70;75.50
29663;DHT22;16578;53.266;7.920;2022-08-01T05:16:42;20.70;75.40
29663;DHT22;16578;53.266;7.920;2022-08-01T05:19:08;20.70;75.60
29663;DHT22;16578;53.266;7.920;2022-08-01T05:21:34;20.60;75.60
29663;DHT22;16578;53.266;7.920;2022-08-01T05:24:00;20.60;75.50
29663;DHT22;16578;53.266;7.920;2022-08-01T05:26:25;20.60;75.30
29663;DHT22;16578;53.266;7.920;2022-08-01T05:28:51;20.60;75.10
29663;DHT22;16578;53.266;7.920;2022-08-01T05:31:16;20.60;75.10
29663;DHT22;16578;53.266;7.920;2022-08-01T05:33:42;20.50;75.00
29663;DHT22;16578;53.266;7.920;2022-08-01T05:36:07;20.50;75.10
29663;DHT22;16578;53.266;7.920;2022-08-01T05:38:33;20.50;75.20
29663;DHT22;16578;53.266;7.920;2022-08-01T05:40:59;20.50;75.40
29663;DHT22;16578;53.266;7.920;2022-08-01T05:43:24;20.40;75.50
29663;DHT22;16578;53.266;7.920;2022-08-01T05:45:50;20.40;75.50
29663;DHT22;16578;53.266;7.920;2022-08-01T05:48:16;20.50;75.60
29663;DHT22;16578;53.266;7.920;2022-08-01T05:50:41;20.40;75.50
29663;DHT22;16578;53.266;7.920;2022-08-01T05:53:07;20.40;75.50
29663;DHT22;16578;53.266;7.920;2022-08-01T05:55:32;20.50;75.80
29663;DHT22;16578;53.266;7.920;2022-08-01T05:57:58;20.50;75.80
29663;DHT22;16578;53.266;7.920;2022-08-01T06:00:23;20.50;75.60
29663;DHT22;16578;53.266;7.920;2022-08-01T06:02:49;20.50;75.50
29663;DHT22;16578;53.266;7.920;2022-08-01T06:05:15;20.50;75.50
29663;DHT22;16578;53.266;7.920;2022-08-01T06:07:41;20.50;75.40
29663;DHT22;16578;53.266;7.920;2022-08-01T06:10:07;20.50;75.30
29663;DHT22;16578;53.266;7.920;2022-08-01T06:12:34;20.50;75.20
29663;DHT22;16578;53.266;7.920;2022-08-01T06:14:59;20.50;75.10
29663;DHT22;16578;53.266;7.920;2022-08-01T06:17:25;20.50;75.00
29663;DHT22;16578;53.266;7.920;2022-08-01T06:19:50;20.50;74.90
29663;DHT22;16578;53.266;7.920;2022-08-01T06:22:16;20.50;74.80
29663;DHT22;16578;53.266;7.920;2022-08-01T06:24:42;20.50;74.80
29663;DHT22;16578;53.266;7.920;2022-08-01T06:27:07;20.40;74.70
29663;DHT22;16578;53.266;7.920;2022-08-01T06:29:33;20.50;74.70
29663;DHT22;16578;53.266;7.920;2022-08-01T06:31:58;20.50;74.60
29663;DHT22;16578;53.266;7.920;2022-08-01T06:34:24;20.40;74.50
29663;DHT22;16578;53.266;7.920;2022-08-01T06:36:49;20.50;74.70
29663;DHT22;16578;53.266;7.920;2022-08-01T06:39:15;20.50;74.80
29663;DHT22;16578;53.266;7.920;2022-08-01T06:41:41;20.50;74.90
29663;DHT22;16578;53.266;7.920;2022-08-01T06:44:07;20.50;74.80
29663;DHT22;16578;53.266;7.920;2022-08-01T06:46:33;20.50;74.60
29663;DHT22;16578;53.266;7.920;2022-08-01T06:48:59;20.50;74.60
29663;DHT22;16578;53.266;7.920;2022-08-01T06:51:24;20.50;74.40
29663;DHT22;16578;53.266;7.920;2022-08-01T06:53:50;20.50;74.40
29663;DHT22;16578;53.266;7.920;2022-08-01T06:56:16;20.50;74.00
29663;DHT22;16578;53.266;7.920;2022-08-01T06:58:41;20.50;74.00
29663;DHT22;16578;53.266;7.920;2022-08-01T07:01:07;20.50;74.20
29663;DHT22;16578;53.266;7.920;2022-08-01T07:03:33;20.60;74.10
29663;DHT22;16578;53.266;7.920;2022-08-01T07:05:59;20.60;74.00
29663;DHT22;16578;53.266;7.920;2022-08-01T07:08:24;20.60;73.90
29663;DHT22;16578;53.266;7.920;2022-08-01T07:10:50;20.50;73.90
29663;DHT22;16578;53.266;7.920;2022-08-01T07:13:15;20.60;74.10
29663;DHT22;16578;53.266;7.920;2022-08-01T07:15:46;20.60;74.10
29663;DHT22;16578;53.266;7.920;2022-08-01T07:18:12;20.60;74.30
29663;DHT22;16578;53.266;7.920;2022-08-01T07:20:37;20.70;74.60
29663;DHT22;16578;53.266;7.920;2022-08-01T07:23:03;20.70;74.80
29663;DHT22;16578;53.266;7.920;2022-08-01T07:25:29;20.70;74.60
29663;DHT22;16578;53.266;7.920;2022-08-01T07:27:54;20.80;74.00
29663;DHT22;16578;53.266;7.920;2022-08-01T07:30:20;20.80;73.50
29663;DHT22;16578;53.266;7.920;2022-08-01T07:32:46;20.90;73.50
29663;DHT22;16578;53.266;7.920;2022-08-01T07:35:11;20.90;73.50
29663;DHT22;16578;53.266;7.920;2022-08-01T07:37:37;20.90;73.50
29663;DHT22;16578;53.266;7.920;2022-08-01T07:40:03;20.90;73.40
29663;DHT22;16578;53.266;7.920;2022-08-01T07:42:30;21.00;74.10
29663;DHT22;16578;53.266;7.920;2022-08-01T07:44:56;21.00;72.70
29663;DHT22;16578;53.266;7.920;2022-08-01T07:47:25;21.00;72.20
29663;DHT22;16578;53.266;7.920;2022-08-01T07:49:51;20.90;71.90
29663;DHT22;16578;53.266;7.920;2022-08-01T07:52:17;20.90;71.80
29663;DHT22;16578;53.266;7.920;2022-08-01T07:54:43;20.90;71.70
29663;DHT22;16578;53.266;7.920;2022-08-01T07:57:08;20.90;71.50
29663;DHT22;16578;53.266;7.920;2022-08-01T07:59:34;20.90;71.30
29663;DHT22;16578;53.266;7.920;2022-08-01T08:02:00;20.80;71.50
29663;DHT22;16578;53.266;7.920;2022-08-01T08:04:27;20.90;71.70
29663;DHT22;16578;53.266;7.920;2022-08-01T08:06:53;20.90;71.80
29663;DHT22;16578;53.266;7.920;2022-08-01T08:09:19;20.90;71.80
29663;DHT22;16578;53.266;7.920;2022-08-01T08:11:45;20.90;71.90
29663;DHT22;16578;53.266;7.920;2022-08-01T08:14:11;20.90;71.90
29663;DHT22;16578;53.266;7.920;2022-08-01T08:16:37;20.90;71.90
29663;DHT22;16578;53.266;7.920;2022-08-01T08:19:02;20.90;71.50
29663;DHT22;16578;53.266;7.920;2022-08-01T08:21:28;21.00;71.20
29663;DHT22;16578;53.266;7.920;2022-08-01T08:23:56;21.00;71.00
29663;DHT22;16578;53.266;7.920;2022-08-01T08:26:40;21.00;70.70
29663;DHT22;16578;53.266;7.920;2022-08-01T08:29:07;21.00;70.80
29663;DHT22;16578;53.266;7.920;2022-08-01T08:31:32;21.00;70.70
29663;DHT22;16578;53.266;7.920;2022-08-01T08:33:58;21.00;70.40
29663;DHT22;16578;53.266;7.920;2022-08-01T08:36:24;21.00;70.10
29663;DHT22;16578;53.266;7.920;2022-08-01T08:38:49;21.00;70.90
29663;DHT22;16578;53.266;7.920;2022-08-01T08:41:15;21.10;70.10
29663;DHT22;16578;53.266;7.920;2022-08-01T08:43:41;21.10;70.00
29663;DHT22;16578;53.266;7.920;2022-08-01T08:46:08;21.10;69.70
29663;DHT22;16578;53.266;7.920;2022-08-01T08:48:34;21.10;69.50
29663;DHT22;16578;53.266;7.920;2022-08-01T08:51:00;21.10;69.30
29663;DHT22;16578;53.266;7.920;2022-08-01T08:53:27;21.10;69.00
29663;DHT22;16578;53.266;7.920;2022-08-01T08:55:53;21.20;68.80
29663;DHT22;16578;53.266;7.920;2022-08-01T08:58:21;21.20;69.10
29663;DHT22;16578;53.266;7.920;2022-08-01T09:00:47;21.20;69.00
29663;DHT22;16578;53.266;7.920;2022-08-01T09:03:13;21.20;68.80
29663;DHT22;16578;53.266;7.920;2022-08-01T09:05:38;21.30;68.50
29663;DHT22;16578;53.266;7.920;2022-08-01T09:08:07;21.30;68.40
29663;DHT22;16578;53.266;7.920;2022-08-01T09:10:33;21.30;67.60
29663;DHT22;16578;53.266;7.920;2022-08-01T09:13:14;21.40;67.90
29663;DHT22;16578;53.266;7.920;2022-08-01T09:15:43;21.40;68.10
29663;DHT22;16578;53.266;7.920;2022-08-01T09:18:36;21.40;68.00
29663;DHT22;16578;53.266;7.920;2022-08-01T09:21:16;21.50;67.30
29663;DHT22;16578;53.266;7.920;2022-08-01T09:23:45;21.50;67.20
29663;DHT22;16578;53.266;7.920;2022-08-01T09:26:32;21.40;67.20
29663;DHT22;16578;53.266;7.920;2022-08-01T09:28:59;21.50;66.70
29663;DHT22;16578;53.266;7.920;2022-08-01T09:31:27;21.50;66.80
29663;DHT22;16578;53.266;7.920;2022-08-01T09:33:57;21.50;66.40
29663;DHT22;16578;53.266;7.920;2022-08-01T09:36:25;21.40;67.20
29663;DHT22;16578;53.266;7.920;2022-08-01T09:38:52;21.50;66.70
29663;DHT22;16578;53.266;7.920;2022-08-01T09:41:28;21.50;66.60
29663;DHT22;16578;53.266;7.920;2022-08-01T09:43:55;21.50;66.30
29663;DHT22;16578;53.266;7.920;2022-08-01T09:46:21;21.50;66.70
29663;DHT22;16578;53.266;7.920;2022-08-01T09:48:59;21.50;66.90
29663;DHT22;16578;53.266;7.920;2022-08-01T09:53:55;21.60;66.40
29663;DHT22;16578;53.266;7.920;2022-08-01T09:56:22;21.50;66.10
29663;DHT22;16578;53.266;7.920;2022-08-01T09:58:52;21.60;65.70
29663;DHT22;16578;53.266;7.920;2022-08-01T10:01:21;21.60;65.80
29663;DHT22;16578;53.266;7.920;2022-08-01T10:03:52;21.60;65.70
29663;DHT22;16578;53.266;7.920;2022-08-01T10:06:28;21.60;65.70
29663;DHT22;16578;53.266;7.920;2022-08-01T10:08:54;21.60;65.10
29663;DHT22;16578;53.266;7.920;2022-08-01T10:11:19;21.60;64.80
29663;DHT22;16578;53.266;7.920;2022-08-01T10:13:47;21.70;64.70
29663;DHT22;16578;53.266;7.920;2022-08-01T10:16:14;21.70;64.90
29663;DHT22;16578;53.266;7.920;2022-08-01T10:18:41;21.70;65.10
29663;DHT22;16578;53.266;7.920;2022-08-01T10:21:07;21.80;64.80
29663;DHT22;16578;53.266;7.920;2022-08-01T10:23:37;21.70;64.30
29663;DHT22;16578;53.266;7.920;2022-08-01T10:26:05;21.80;64.40
29663;DHT22;16578;53.266;7.920;2022-08-01T10:28:31;21.80;64.60
29663;DHT22;16578;53.266;7.920;2022-08-01T10:31:00;21.90;64.50
29663;DHT22;16578;53.266;7.920;2022-08-01T10:33:28;21.90;63.90
29663;DHT22;16578;53.266;7.920;2022-08-01T10:35:54;21.90;63.20
29663;DHT22;16578;53.266;7.920;2022-08-01T10:38:20;21.90;63.50
29663;DHT22;16578;53.266;7.920;2022-08-01T10:40:45;22.00;63.60
29663;DHT22;16578;53.266;7.920;2022-08-01T10:43:12;22.00;63.70
29663;DHT22;16578;53.266;7.920;2022-08-01T10:45:41;22.00;63.40
29663;DHT22;16578;53.266;7.920;2022-08-01T10:48:29;22.10;63.10
29663;DHT22;16578;53.266;7.920;2022-08-01T10:51:00;22.10;63.30
29663;DHT22;16578;53.266;7.920;2022-08-01T10:53:27;22.10;63.00
29663;DHT22;16578;53.266;7.920;2022-08-01T10:58:22;22.20;62.50
29663;DHT22;16578;53.266;7.920;2022-08-01T11:00:48;22.20;63.30
29663;DHT22;16578;53.266;7.920;2022-08-01T11:03:14;22.20;62.60
29663;DHT22;16578;53.266;7.920;2022-08-01T11:05:41;22.30;62.60
29663;DHT22;16578;53.266;7.920;2022-08-01T11:08:27;22.30;62.50
29663;DHT22;16578;53.266;7.920;2022-08-01T11:11:00;22.40;61.50
29663;DHT22;16578;53.266;7.920;2022-08-01T11:16:27;22.30;60.70
29663;DHT22;16578;53.266;7.920;2022-08-01T11:18:53;22.30;61.20
29663;DHT22;16578;53.266;7.920;2022-08-01T11:21:19;22.30;61.20
29663;DHT22;16578;53.266;7.920;2022-08-01T11:23:49;22.30;61.10
29663;DHT22;16578;53.266;7.920;2022-08-01T11:26:16;22.30;60.80
29663;DHT22;16578;53.266;7.920;2022-08-01T11:28:43;22.40;60.60
29663;DHT22;16578;53.266;7.920;2022-08-01T11:38:41;22.40;60.80
29663;DHT22;16578;53.266;7.920;2022-08-01T11:43:58;22.40;60.80
29663;DHT22;16578;53.266;7.920;2022-08-01T11:46:56;22.50;60.20
29663;DHT22;16578;53.266;7.920;2022-08-01T11:52:00;22.50;60.60
29663;DHT22;16578;53.266;7.920;2022-08-01T11:54:27;22.50;60.00
29663;DHT22;16578;53.266;7.920;2022-08-01T11:56:59;22.50;60.10
29663;DHT22;16578;53.266;7.920;2022-08-01T11:59:25;22.50;59.50
29663;DHT22;16578;53.266;7.920;2022-08-01T12:01:50;22.50;59.60
29663;DHT22;16578;53.266;7.920;2022-08-01T12:04:16;22.50;59.50
29663;DHT22;16578;53.266;7.920;2022-08-01T12:06:41;22.50;59.50
29663;DHT22;16578;53.266;7.920;2022-08-01T12:09:21;22.50;59.50
29663;DHT22;16578;53.266;7.920;2022-08-01T12:11:47;22.60;59.60
29663;DHT22;16578;53.266;7.920;2022-08-01T12:14:18;22.60;59.80
29663;DHT22;16578;53.266;7.920;2022-08-01T12:16:54;22.60;59.00
29663;DHT22;16578;53.266;7.920;2022-08-01T12:19:24;22.70;59.10
29663;DHT22;16578;53.266;7.920;2022-08-01T12:22:25;22.70;59.40
29663;DHT22;16578;53.266;7.920;2022-08-01T12:24:51;22.70;59.30
29663;DHT22;16578;53.266;7.920;2022-08-01T12:27:25;22.70;59.50
29663;DHT22;16578;53.266;7.920;2022-08-01T12:29:51;22.80;58.70
29663;DHT22;16578;53.266;7.920;2022-08-01T12:32:30;22.80;58.70
29663;DHT22;16578;53.266;7.920;2022-08-01T12:35:40;22.80;58.50
29663;DHT22;16578;53.266;7.920;2022-08-01T12:37:50;22.80;58.60
29663;DHT22;16578;53.266;7.920;2022-08-01T12:40:18;22.80;58.60
29663;DHT22;16578;53.266;7.920;2022-08-01T12:42:50;22.80;58.30
29663;DHT22;16578;53.266;7.920;2022-08-01T12:45:19;22.80;57.90
29663;DHT22;16578;53.266;7.920;2022-08-01T12:47:46;22.80;58.10
29663;DHT22;16578;53.266;7.920;2022-08-01T12:50:15;22.70;58.20
29663;DHT22;16578;53.266;7.920;2022-08-01T12:52:41;22.80;58.50
29663;DHT22;16578;53.266;7.920;2022-08-01T12:55:17;22.70;58.40
29663;DHT22;16578;53.266;7.920;2022-08-01T12:57:46;22.70;58.40
29663;DHT22;16578;53.266;7.920;2022-08-01T13:00:23;22.80;58.30
29663;DHT22;16578;53.266;7.920;2022-08-01T13:03:00;22.80;58.70
29663;DHT22;16578;53.266;7.920;2022-08-01T13:05:26;22.80;58.30
29663;DHT22;16578;53.266;7.920;2022-08-01T13:07:53;22.80;58.30
29663;DHT22;16578;53.266;7.920;2022-08-01T13:10:29;22.80;58.20
29663;DHT22;16578;53.266;7.920;2022-08-01T13:12:58;22.90;57.50
29663;DHT22;16578;53.266;7.920;2022-08-01T13:15:32;22.90;58.10
29663;DHT22;16578;53.266;7.920;2022-08-01T13:17:59;22.90;58.00
29663;DHT22;16578;53.266;7.920;2022-08-01T13:23:17;22.90;57.40
29663;DHT22;16578;53.266;7.920;2022-08-01T13:25:54;22.90;57.40
29663;DHT22;16578;53.266;7.920;2022-08-01T13:28:23;22.90;56.90
29663;DHT22;16578;53.266;7.920;2022-08-01T13:30:58;22.90;56.90
29663;DHT22;16578;53.266;7.920;2022-08-01T13:33:25;22.90;56.70
29663;DHT22;16578;53.266;7.920;2022-08-01T13:35:56;22.90;56.90
29663;DHT22;16578;53.266;7.920;2022-08-01T13:38:22;22.90;57.50
29663;DHT22;16578;53.266;7.920;2022-08-01T13:41:06;22.90;56.70
29663;DHT22;16578;53.266;7.920;2022-08-01T13:43:32;22.90;57.00
29663;DHT22;16578;53.266;7.920;2022-08-01T13:45:58;22.90;56.60
29663;DHT22;16578;53.266;7.920;2022-08-01T13:48:23;22.90;56.40
29663;DHT22;16578;53.266;7.920;2022-08-01T13:50:49;22.90;56.50
29663;DHT22;16578;53.266;7.920;2022-08-01T13:53:14;22.90;56.50
29663;DHT22;16578;53.266;7.920;2022-08-01T13:55:40;23.00;56.50
29663;DHT22;16578;53.266;7.920;2022-08-01T13:58:05;22.90;56.40
29663;DHT22;16578;53.266;7.920;2022-08-01T14:00:31;23.00;56.40
29663;DHT22;16578;53.266;7.920;2022-08-01T14:02:57;23.00;56.40
29663;DHT22;16578;53.266;7.920;2022-08-01T14:05:23;23.00;56.50
29663;DHT22;16578;53.266;7.920;2022-08-01T14:07:48;23.00;56.30
29663;DHT22;16578;53.266;7.920;2022-08-01T14:10:14;23.00;56.60
29663;DHT22;16578;53.266;7.920;2022-08-01T14:12:39;23.00;56.70
29663;DHT22;16578;53.266;7.920;2022-08-01T14:15:06;23.10;56.60
29663;DHT22;16578;53.266;7.920;2022-08-01T14:17:32;23.10;56.30
29663;DHT22;16578;53.266;7.920;2022-08-01T14:19:58;23.10;56.20
29663;DHT22;16578;53.266;7.920;2022-08-01T14:22:24;23.10;55.90
29663;DHT22;16578;53.266;7.920;2022-08-01T14:24:50;23.10;55.80
29663;DHT22;16578;53.266;7.920;2022-08-01T14:27:15;23.10;55.60
29663;DHT22;16578;53.266;7.920;2022-08-01T14:29:41;23.10;55.20
29663;DHT22;16578;53.266;7.920;2022-08-01T14:32:06;23.10;55.20
29663;DHT22;16578;53.266;7.920;2022-08-01T14:34:32;23.10;55.40
29663;DHT22;16578;53.266;7.920;2022-08-01T14:36:57;23.10;55.40
29663;DHT22;16578;53.266;7.920;2022-08-01T14:39:23;23.10;55.40
29663;DHT22;16578;53.266;7.920;2022-08-01T14:41:48;23.10;55.50
29663;DHT22;16578;53.266;7.920;2022-08-01T14:44:14;23.10;55.10
29663;DHT22;16578;53.266;7.920;2022-08-01T14:46:39;23.10;54.90
29663;DHT22;16578;53.266;7.920;2022-08-01T14:49:06;23.10;54.80
29663;DHT22;16578;53.266;7.920;2022-08-01T14:51:32;23.10;54.70
29663;DHT22;16578;53.266;7.920;2022-08-01T14:53:59;23.00;54.80
29663;DHT22;16578;53.266;7.920;2022-08-01T14:56:25;23.00;54.70
29663;DHT22;16578;53.266;7.920;2022-08-01T14:58:50;23.10;54.50
29663;DHT22;16578;53.266;7.920;2022-08-01T15:01:16;23.00;54.40
29663;DHT22;16578;53.266;7.920;2022-08-01T15:03:43;23.00;54.40
29663;DHT22;16578;53.266;7.920;2022-08-01T15:06:09;23.10;54.30
29663;DHT22;16578;53.266;7.920;2022-08-01T15:08:36;23.00;54.30
29663;DHT22;16578;53.266;7.920;2022-08-01T15:11:02;23.10;54.60
29663;DHT22;16578;53.266;7.920;2022-08-01T15:13:27;23.10;54.70
29663;DHT22;16578;53.266;7.920;2022-08-01T15:15:53;23.10;54.80
29663;DHT22;16578;53.266;7.920;2022-08-01T15:18:19;23.10;54.20
29663;DHT22;16578;53.266;7.920;2022-08-01T15:20:44;23.10;53.90
29663;DHT22;16578;53.266;7.920;2022-08-01T15:23:10;23.00;53.80
29663;DHT22;16578;53.266;7.920;2022-08-01T15:25:36;23.10;53.90
29663;DHT22;16578;53.266;7.920;2022-08-01T15:28:02;23.00;53.90
29663;DHT22;16578;53.266;7.920;2022-08-01T15:30:28;23.00;53.90
29663;DHT22;16578;53.266;7.920;2022-08-01T15:32:53;23.00;53.60
29663;DHT22;16578;53.266;7.920;2022-08-01T15:35:19;23.00;53.40
29663;DHT22;16578;53.266;7.920;2022-08-01T15:37:44;23.00;53.50
29663;DHT22;16578;53.266;7.920;2022-08-01T15:40:11;23.00;53.60
29663;DHT22;16578;53.266;7.920;2022-08-01T15:42:37;23.00;53.30
29663;DHT22;16578;53.266;7.920;2022-08-01T15:45:02;23.00;53.40
29663;DHT22;16578;53.266;7.920;2022-08-01T15:47:29;23.00;53.40
29663;DHT22;16578;53.266;7.920;2022-08-01T15:49:55;23.00;53.30
29663;DHT22;16578;53.266;7.920;2022-08-01T15:52:24;23.00;53.30
29663;DHT22;16578;53.266;7.920;2022-08-01T15:54:50;23.00;53.10
29663;DHT22;16578;53.266;7.920;2022-08-01T15:57:16;23.00;53.20
29663;DHT22;16578;53.266;7.920;2022-08-01T15:59:42;23.00;53.40
29663;DHT22;16578;53.266;7.920;2022-08-01T16:02:08;23.00;53.50
29663;DHT22;16578;53.266;7.920;2022-08-01T16:04:33;23.00;53.60
29663;DHT22;16578;53.266;7.920;2022-08-01T16:06:59;23.00;53.50
29663;DHT22;16578;53.266;7.920;2022-08-01T16:09:25;23.00;53.50
29663;DHT22;16578;53.266;7.920;2022-08-01T16:11:50;23.10;53.40